sensor_id;sensor_type;location;lat;lon;timestamp;pressure;altitude;pressure_sealevel;temperature;humidity
44138;BME280;29800;55.942;37.314;2023-04-25T00:00:44;99223.06;;;10.62;45.60
44138;BME280;29800;55.942;37.314;2023-04-25T00:03:11;99225.25;;;10.60;45.61
44138;BME280;29800;55.942;37.314;2023-04-25T00:05:37;99224.09;;;10.56;45.53
44138;BME280;29800;55.942;37.314;2023-04-25T00:08:06;99220.25;;;10.52;45.30
44138;BME280;29800;55.942;37.314;2023-04-25T00:10:32;99221.34;;;10.51;44.93
44138;BME280;29800;55.942;37.314;2023-04-25T00:12:59;99225.16;;;10.50;44.97
44138;BME280;29800;55.942;37.314;2023-04-25T00:15:28;99215.84;;;10.51;44.88
44138;BME280;29800;55.942;37.314;2023-04-25T00:17:56;99218.06;;;10.54;44.72
44138;BME280;29800;55.942;37.314;2023-04-25T00:20:23;99218.34;;;10.52;44.75
44138;BME280;29800;55.942;37.314;2023-04-25T00:22:50;99222.44;;;10.50;44.56
44138;BME280;29800;55.942;37.314;2023-04-25T00:25:19;99231.06;;;10.36;46.36
44138;BME280;29800;55.942;37.314;2023-04-25T00:27:46;99223.84;;;10.25;47.31
44138;BME280;29800;55.942;37.314;2023-04-25T00:30:13;99225.91;;;10.12;47.85
44138;BME280;29800;55.942;37.314;2023-04-25T00:32:40;99232.94;;;10.03;47.38
44138;BME280;29800;55.942;37.314;2023-04-25T00:35:06;99239.19;;;9.99;47.35
44138;BME280;29800;55.942;37.314;2023-04-25T00:37:33;99242.66;;;9.89;47.73
44138;BME280;29800;55.942;37.314;2023-04-25T00:39:59;99235.22;;;9.84;47.37
44138;BME280;29800;55.942;37.314;2023-04-25T00:42:26;99243.69;;;9.83;47.82
44138;BME280;29800;55.942;37.314;2023-04-25T00:44:53;99238.72;;;9.80;47.44
44138;BME280;29800;55.942;37.314;2023-04-25T00:47:19;99244.44;;;9.78;47.30
44138;BME280;29800;55.942;37.314;2023-04-25T00:49:45;99244.69;;;9.77;47.55
44138;BME280;29800;55.942;37.314;2023-04-25T00:52:12;99257.81;;;9.74;47.64
44138;BME280;29800;55.942;37.314;2023-04-25T00:54:39;99249.03;;;9.72;47.58
44138;BME280;29800;55.942;37.314;2023-04-25T00:57:05;99253.66;;;9.72;47.48
44138;BME280;29800;55.942;37.314;2023-04-25T00:59:32;99266.50;;;9.71;47.56
44138;BME280;29800;55.942;37.314;2023-04-25T01:01:59;99258.31;;;9.71;47.88
44138;BME280;29800;55.942;37.314;2023-04-25T01:04:27;99253.41;;;9.73;48.00
44138;BME280;29800;55.942;37.314;2023-04-25T01:06:54;99256.97;;;9.74;48.24
44138;BME280;29800;55.942;37.314;2023-04-25T01:09:22;99256.97;;;9.74;48.18
44138;BME280;29800;55.942;37.314;2023-04-25T01:11:49;99247.69;;;9.75;48.52
44138;BME280;29800;55.942;37.314;2023-04-25T01:14:16;99249.34;;;9.76;48.12
44138;BME280;29800;55.942;37.314;2023-04-25T01:16:43;99255.13;;;9.80;47.92
44138;BME280;29800;55.942;37.314;2023-04-25T01:19:10;99252.94;;;9.82;48.18
44138;BME280;29800;55.942;37.314;2023-04-25T01:21:38;99254.91;;;9.86;48.31
44138;BME280;29800;55.942;37.314;2023-04-25T01:24:05;99251.94;;;9.88;47.90
44138;BME280;29800;55.942;37.314;2023-04-25T01:26:33;99245.13;;;9.90;48.72
44138;BME280;29800;55.942;37.314;2023-04-25T01:29:00;99243.25;;;9.96;48.98
44138;BME280;29800;55.942;37.314;2023-04-25T01:31:27;99241.69;;;10.00;48.53
44138;BME280;29800;55.942;37.314;2023-04-25T01:33:54;99244.41;;;10.00;48.24
44138;BME280;29800;55.942;37.314;2023-04-25T01:36:21;99256.97;;;10.01;48.46
44138;BME280;29800;55.942;37.314;2023-04-25T01:38:47;99250.13;;;9.99;48.35
44138;BME280;29800;55.942;37.314;2023-04-25T01:41:15;99244.91;;;9.97;48.91
44138;BME280;29800;55.942;37.314;2023-04-25T01:43:43;99243.25;;;9.96;48.69
44138;BME280;29800;55.942;37.314;2023-04-25T01:46:11;99244.91;;;9.97;48.73
44138;BME280;29800;55.942;37.314;2023-04-25T01:48:37;99255.84;;;9.97;49.12
44138;BME280;29800;55.942;37.314;2023-04-25T01:51:04;99247.06;;;9.95;49.03
44138;BME280;29800;55.942;37.314;2023-04-25T01:53:30;99249.81;;;9.95;49.66
44138;BME280;29800;55.942;37.314;2023-04-25T01:55:57;99251.47;;;9.96;49.37
44138;BME280;29800;55.942;37.314;2023-04-25T01:58:26;99246.00;;;9.96;49.58
44138;BME280;29800;55.942;37.314;2023-04-25T02:01:12;99249.53;;;9.97;49.40
44138;BME280;29800;55.942;37.314;2023-04-25T02:03:45;99248.72;;;9.96;49.36
44138;BME280;29800;55.942;37.314;2023-04-25T02:06:23;99241.09;;;9.98;49.61
44138;BME280;29800;55.942;37.314;2023-04-25T02:08:51;99240.00;;;9.99;49.48
44138;BME280;29800;55.942;37.314;2023-04-25T02:11:19;99241.13;;;10.03;49.77
44138;BME280;29800;55.942;37.314;2023-04-25T02:14:00;99237.28;;;9.99;50.40
44138;BME280;29800;55.942;37.314;2023-04-25T02:17:02;99237.03;;;10.01;50.01
44138;BME280;29800;55.942;37.314;2023-04-25T02:19:30;99233.47;;;10.00;50.14
44138;BME280;29800;55.942;37.314;2023-04-25T02:21:56;99236.78;;;10.02;50.28
44138;BME280;29800;55.942;37.314;2023-04-25T02:24:24;99232.41;;;10.06;50.32
44138;BME280;29800;55.942;37.314;2023-04-25T02:26:50;99226.94;;;10.06;50.62
44138;BME280;29800;55.942;37.314;2023-04-25T02:29:17;99240.63;;;10.06;50.92
44138;BME280;29800;55.942;37.314;2023-04-25T02:31:43;99234.06;;;10.07;50.79
44138;BME280;29800;55.942;37.314;2023-04-25T02:34:10;99227.78;;;10.07;50.91
44138;BME280;29800;55.942;37.314;2023-04-25T02:36:37;99230.81;;;10.10;50.89
44138;BME280;29800;55.942;37.314;2023-04-25T02:39:03;99229.22;;;10.15;50.77
44138;BME280;29800;55.942;37.314;2023-04-25T02:41:30;99229.50;;;10.18;51.40
44138;BME280;29800;55.942;37.314;2023-04-25T02:43:57;99231.47;;;10.23;51.06
44138;BME280;29800;55.942;37.314;2023-04-25T02:46:23;99233.13;;;10.24;51.33
44138;BME280;29800;55.942;37.314;2023-04-25T02:48:49;99230.94;;;10.26;51.59
44138;BME280;29800;55.942;37.314;2023-04-25T02:51:16;99230.13;;;10.25;52.31
44138;BME280;29800;55.942;37.314;2023-04-25T02:53:43;99228.47;;;10.24;51.69
44138;BME280;29800;55.942;37.314;2023-04-25T02:56:10;99229.31;;;10.25;51.38
44138;BME280;29800;55.942;37.314;2023-04-25T02:58:36;99231.47;;;10.23;52.07
44138;BME280;29800;55.942;37.314;2023-04-25T03:01:03;99235.88;;;10.24;52.15
44138;BME280;29800;55.942;37.314;2023-04-25T03:03:29;99236.13;;;10.22;52.44
44138;BME280;29800;55.942;37.314;2023-04-25T03:05:55;99233.94;;;10.24;52.48
44138;BME280;29800;55.942;37.314;2023-04-25T03:08:26;99229.63;;;10.28;52.33
44138;BME280;29800;55.942;37.314;2023-04-25T03:10:59;99226.13;;;10.33;52.20
44138;BME280;29800;55.942;37.314;2023-04-25T03:13:26;99228.31;;;10.36;52.30
44138;BME280;29800;55.942;37.314;2023-04-25T03:15:53;99225.06;;;10.39;51.82
44138;BME280;29800;55.942;37.314;2023-04-25T03:18:21;99234.97;;;10.45;52.08
44138;BME280;29800;55.942;37.314;2023-04-25T03:20:47;99233.91;;;10.46;52.53
44138;BME280;29800;55.942;37.314;2023-04-25T03:23:14;99234.47;;;10.48;52.93
44138;BME280;29800;55.942;37.314;2023-04-25T03:25:42;99240.75;;;10.49;53.39
44138;BME280;29800;55.942;37.314;2023-04-25T03:28:09;99245.41;;;10.48;53.53
44138;BME280;29800;55.942;37.314;2023-04-25T03:30:35;99244.59;;;10.48;53.80
44138;BME280;29800;55.942;37.314;2023-04-25T03:33:02;99248.69;;;10.51;52.98
44138;BME280;29800;55.942;37.314;2023-04-25T03:35:28;99246.00;;;10.56;53.14
44138;BME280;29800;55.942;37.314;2023-04-25T03:37:54;99250.44;;;10.62;53.44
44138;BME280;29800;55.942;37.314;2023-04-25T03:40:26;99246.09;;;10.66;53.81
44138;BME280;29800;55.942;37.314;2023-04-25T03:43:20;99238.47;;;10.73;54.20
44138;BME280;29800;55.942;37.314;2023-04-25T03:45:53;99243.72;;;10.80;53.73
44138;BME280;29800;55.942;37.314;2023-04-25T03:48:21;99232.00;;;10.90;53.30
44138;BME280;29800;55.942;37.314;2023-04-25T03:50:51;99226.06;;;11.08;52.47
44138;BME280;29800;55.942;37.314;2023-04-25T03:53:17;99221.22;;;11.26;51.96
44138;BME280;29800;55.942;37.314;2023-04-25T03:56:03;99227.88;;;11.40;52.46
44138;BME280;29800;55.942;37.314;2023-04-25T03:58:33;99235.59;;;11.48;52.68
44138;BME280;29800;55.942;37.314;2023-04-25T04:00:59;99233.09;;;11.47;53.07
44138;BME280;29800;55.942;37.314;2023-04-25T04:03:26;99222.97;;;11.47;53.31
44138;BME280;29800;55.942;37.314;2023-04-25T04:05:52;99214.75;;;11.52;52.40
44138;BME280;29800;55.942;37.314;2023-04-25T04:08:19;99211.22;;;11.62;51.92
44138;BME280;29800;55.942;37.314;2023-04-25T04:10:45;99202.19;;;11.72;51.39
44138;BME280;29800;55.942;37.314;2023-04-25T04:13:12;99205.00;;;11.87;51.00
44138;BME280;29800;55.942;37.314;2023-04-25T04:15:40;99205.56;;;12.00;50.33
44138;BME280;29800;55.942;37.314;2023-04-25T04:18:06;99214.09;;;12.13;50.52
44138;BME280;29800;55.942;37.314;2023-04-25T04:20:32;99213.28;;;12.23;49.63
44138;BME280;29800;55.942;37.314;2023-04-25T04:22:59;99202.31;;;12.34;49.27
44138;BME280;29800;55.942;37.314;2023-04-25T04:25:25;99212.72;;;12.42;48.91
44138;BME280;29800;55.942;37.314;2023-04-25T04:28:16;99196.78;;;12.54;48.88
44138;BME280;29800;55.942;37.314;2023-04-25T04:31:10;99195.66;;;12.71;48.87
44138;BME280;29800;55.942;37.314;2023-04-25T04:33:37;99191.25;;;12.85;48.71
44138;BME280;29800;55.942;37.314;2023-04-25T04:36:05;99189.31;;;12.96;47.97
44138;BME280;29800;55.942;37.314;2023-04-25T04:38:33;99194.75;;;13.06;48.12
44138;BME280;29800;55.942;37.314;2023-04-25T04:41:03;99210.38;;;13.21;47.01
44138;BME280;29800;55.942;37.314;2023-04-25T04:43:47;99219.13;;;13.38;48.28
44138;BME280;29800;55.942;37.314;2023-04-25T04:46:24;99210.78;;;13.59;46.99
44138;BME280;29800;55.942;37.314;2023-04-25T04:49:25;99207.97;;;13.74;46.82
44138;BME280;29800;55.942;37.314;2023-04-25T04:52:05;99204.06;;;13.86;46.15
44138;BME280;29800;55.942;37.314;2023-04-25T04:54:44;99196.00;;;13.94;45.17
44138;BME280;29800;55.942;37.314;2023-04-25T04:57:29;99190.72;;;14.03;44.93
44138;BME280;29800;55.942;37.314;2023-04-25T05:00:17;99191.19;;;14.15;45.32
44138;BME280;29800;55.942;37.314;2023-04-25T05:03:02;99186.91;;;14.33;44.80
44138;BME280;29800;55.942;37.314;2023-04-25T05:05:49;99187.03;;;14.47;43.55
44138;BME280;29800;55.942;37.314;2023-04-25T05:08:38;99180.06;;;14.60;43.34
44138;BME280;29800;55.942;37.314;2023-04-25T05:11:13;99183.50;;;14.76;42.33
44138;BME280;29800;55.942;37.314;2023-04-25T05:13:59;99181.94;;;14.94;42.19
44138;BME280;29800;55.942;37.314;2023-04-25T05:16:46;99180.13;;;15.09;41.38
44138;BME280;29800;55.942;37.314;2023-04-25T05:19:31;99182.69;;;15.24;41.19
44138;BME280;29800;55.942;37.314;2023-04-25T05:22:22;99183.03;;;15.41;40.95
44138;BME280;29800;55.942;37.314;2023-04-25T05:25:09;99185.56;;;15.57;40.98
44138;BME280;29800;55.942;37.314;2023-04-25T05:27:59;99177.75;;;15.64;40.21
44138;BME280;29800;55.942;37.314;2023-04-25T05:30:44;99179.44;;;15.84;40.88
44138;BME280;29800;55.942;37.314;2023-04-25T05:33:16;99171.88;;;15.90;40.58
44138;BME280;29800;55.942;37.314;2023-04-25T05:35:44;99176.44;;;15.99;39.70
44138;BME280;29800;55.942;37.314;2023-04-25T05:38:11;99184.03;;;16.08;39.87
44138;BME280;29800;55.942;37.314;2023-04-25T05:41:01;99177.03;;;16.15;39.03
44138;BME280;29800;55.942;37.314;2023-04-25T05:43:45;99183.19;;;16.26;38.95
44138;BME280;29800;55.942;37.314;2023-04-25T05:46:36;99183.75;;;16.42;39.24
44138;BME280;29800;55.942;37.314;2023-04-25T05:49:23;99174.38;;;16.57;39.81
44138;BME280;29800;55.942;37.314;2023-04-25T05:51:52;99179.09;;;16.70;39.56
44138;BME280;29800;55.942;37.314;2023-04-25T05:54:27;99176.59;;;16.88;39.50
44138;BME280;29800;55.942;37.314;2023-04-25T05:56:56;99175.69;;;16.93;38.29
44138;BME280;29800;55.942;37.314;2023-04-25T05:59:23;99175.69;;;17.06;40.54
44138;BME280;29800;55.942;37.314;2023-04-25T06:01:49;99175.16;;;17.18;39.28
44138;BME280;29800;55.942;37.314;2023-04-25T06:04:16;99174.25;;;17.23;39.78
44138;BME280;29800;55.942;37.314;2023-04-25T06:06:42;99175.69;;;17.34;39.09
44138;BME280;29800;55.942;37.314;2023-04-25T06:09:08;99175.56;;;17.39;38.94
44138;BME280;29800;55.942;37.314;2023-04-25T06:11:35;99170.97;;;17.49;39.45
44138;BME280;29800;55.942;37.314;2023-04-25T06:14:02;99167.66;;;17.60;38.95
44138;BME280;29800;55.942;37.314;2023-04-25T06:16:31;99176.03;;;17.69;38.38
44138;BME280;29800;55.942;37.314;2023-04-25T06:18:58;99167.00;;;17.77;38.03
44138;BME280;29800;55.942;37.314;2023-04-25T06:21:25;99169.03;;;17.86;38.99
44138;BME280;29800;55.942;37.314;2023-04-25T06:23:52;99162.13;;;17.97;37.59
44138;BME280;29800;55.942;37.314;2023-04-25T06:26:21;99168.56;;;18.06;37.82
44138;BME280;29800;55.942;37.314;2023-04-25T06:28:48;99155.00;;;18.18;37.34
44138;BME280;29800;55.942;37.314;2023-04-25T06:31:15;99159.78;;;18.27;38.81
44138;BME280;29800;55.942;37.314;2023-04-25T06:33:43;99156.13;;;18.40;36.85
44138;BME280;29800;55.942;37.314;2023-04-25T06:36:09;99158.13;;;18.48;36.19
44138;BME280;29800;55.942;37.314;2023-04-25T06:38:37;99165.97;;;18.55;36.51
44138;BME280;29800;55.942;37.314;2023-04-25T06:41:04;99154.56;;;18.57;35.70
44138;BME280;29800;55.942;37.314;2023-04-25T06:43:34;99151.66;;;18.62;35.55
44138;BME280;29800;55.942;37.314;2023-04-25T06:46:24;99152.00;;;18.69;35.61
44138;BME280;29800;55.942;37.314;2023-04-25T06:48:52;99151.75;;;18.79;35.02
44138;BME280;29800;55.942;37.314;2023-04-25T06:51:19;99152.47;;;18.94;34.07
44138;BME280;29800;55.942;37.314;2023-04-25T06:53:46;99150.91;;;19.10;34.29
44138;BME280;29800;55.942;37.314;2023-04-25T06:56:23;99149.31;;;19.26;34.19
44138;BME280;29800;55.942;37.314;2023-04-25T06:58:56;99146.91;;;19.34;34.15
44138;BME280;29800;55.942;37.314;2023-04-25T07:01:28;99144.81;;;19.48;33.19
44138;BME280;29800;55.942;37.314;2023-04-25T07:03:57;99140.56;;;19.59;32.41
44138;BME280;29800;55.942;37.314;2023-04-25T07:06:23;99137.97;;;19.72;31.63
44138;BME280;29800;55.942;37.314;2023-04-25T07:08:52;99137.84;;;19.86;31.54
44138;BME280;29800;55.942;37.314;2023-04-25T07:11:18;99143.25;;;19.91;30.45
44138;BME280;29800;55.942;37.314;2023-04-25T07:13:45;99143.91;;;19.96;30.17
44138;BME280;29800;55.942;37.314;2023-04-25T07:16:11;99143.25;;;20.17;30.46
44138;BME280;29800;55.942;37.314;2023-04-25T07:18:38;99145.19;;;20.25;32.34
44138;BME280;29800;55.942;37.314;2023-04-25T07:21:04;99141.72;;;20.46;29.52
44138;BME280;29800;55.942;37.314;2023-04-25T07:23:33;99135.78;;;20.56;31.04
44138;BME280;29800;55.942;37.314;2023-04-25T07:26:04;99133.78;;;20.74;28.77
44138;BME280;29800;55.942;37.314;2023-04-25T07:28:31;99143.06;;;20.87;27.48
44138;BME280;29800;55.942;37.314;2023-04-25T07:30:57;99144.53;;;20.93;27.60
44138;BME280;29800;55.942;37.314;2023-04-25T07:33:24;99134.06;;;20.90;27.44
44138;BME280;29800;55.942;37.314;2023-04-25T07:35:51;99141.75;;;20.93;27.37
44138;BME280;29800;55.942;37.314;2023-04-25T07:38:18;99139.22;;;21.09;28.70
44138;BME280;29800;55.942;37.314;2023-04-25T07:40:44;99137.59;;;21.08;25.96
44138;BME280;29800;55.942;37.314;2023-04-25T07:43:11;99135.44;;;21.14;26.37
44138;BME280;29800;55.942;37.314;2023-04-25T07:45:54;99133.41;;;21.23;27.52
44138;BME280;29800;55.942;37.314;2023-04-25T07:48:21;99129.19;;;21.17;26.31
44138;BME280;29800;55.942;37.314;2023-04-25T07:50:49;99124.88;;;21.28;27.81
44138;BME280;29800;55.942;37.314;2023-04-25T07:53:16;99134.84;;;21.59;26.99
44138;BME280;29800;55.942;37.314;2023-04-25T07:55:52;99134.31;;;21.65;26.50
44138;BME280;29800;55.942;37.314;2023-04-25T07:58:20;99139.88;;;21.65;26.26
44138;BME280;29800;55.942;37.314;2023-04-25T08:00:50;99137.19;;;21.78;27.13
44138;BME280;29800;55.942;37.314;2023-04-25T08:03:35;99134.41;;;21.78;26.92
44138;BME280;29800;55.942;37.314;2023-04-25T08:06:05;99125.72;;;21.79;25.83
44138;BME280;29800;55.942;37.314;2023-04-25T08:08:37;99125.88;;;21.95;26.31
44138;BME280;29800;55.942;37.314;2023-04-25T08:11:06;99126.44;;;21.89;25.55
44138;BME280;29800;55.942;37.314;2023-04-25T08:13:32;99128.97;;;21.81;26.17
44138;BME280;29800;55.942;37.314;2023-04-25T08:15:59;99121.97;;;21.75;26.53
44138;BME280;29800;55.942;37.314;2023-04-25T08:18:25;99131.06;;;21.63;25.80
44138;BME280;29800;55.942;37.314;2023-04-25T08:20:52;99125.03;;;21.61;26.08
44138;BME280;29800;55.942;37.314;2023-04-25T08:23:18;99122.75;;;21.76;27.76
44138;BME280;29800;55.942;37.314;2023-04-25T08:25:44;99113.91;;;22.16;30.71
44138;BME280;29800;55.942;37.314;2023-04-25T08:28:14;99109.91;;;22.38;27.03
44138;BME280;29800;55.942;37.314;2023-04-25T08:30:41;99118.09;;;22.43;25.58
44138;BME280;29800;55.942;37.314;2023-04-25T08:33:11;99109.81;;;22.13;25.30
44138;BME280;29800;55.942;37.314;2023-04-25T08:35:46;99113.94;;;21.95;26.06
44138;BME280;29800;55.942;37.314;2023-04-25T08:38:14;99109.47;;;21.81;26.25
44138;BME280;29800;55.942;37.314;2023-04-25T08:40:41;99113.13;;;21.94;28.03
44138;BME280;29800;55.942;37.314;2023-04-25T08:43:18;99120.53;;;21.90;27.54
44138;BME280;29800;55.942;37.314;2023-04-25T08:45:45;99112.94;;;21.78;26.70
44138;BME280;29800;55.942;37.314;2023-04-25T08:48:33;99114.22;;;21.60;26.76
44138;BME280;29800;55.942;37.314;2023-04-25T08:51:02;99109.88;;;21.41;27.24
44138;BME280;29800;55.942;37.314;2023-04-25T08:53:31;99105.13;;;21.21;27.60
44138;BME280;29800;55.942;37.314;2023-04-25T08:56:01;99105.41;;;20.98;27.91
44138;BME280;29800;55.942;37.314;2023-04-25T08:58:33;99107.78;;;20.79;28.27
44138;BME280;29800;55.942;37.314;2023-04-25T09:01:00;99107.84;;;20.61;28.55
44138;BME280;29800;55.942;37.314;2023-04-25T09:03:31;99106.56;;;20.50;29.09
44138;BME280;29800;55.942;37.314;2023-04-25T09:05:58;99104.28;;;20.34;29.45
44138;BME280;29800;55.942;37.314;2023-04-25T09:08:24;99105.97;;;20.18;28.54
44138;BME280;29800;55.942;37.314;2023-04-25T09:10:50;99104.53;;;20.03;29.20
44138;BME280;29800;55.942;37.314;2023-04-25T09:16:09;99098.34;;;19.97;29.60
44138;BME280;29800;55.942;37.314;2023-04-25T09:18:47;99104.06;;;19.92;29.75
44138;BME280;29800;55.942;37.314;2023-04-25T09:21:14;99095.72;;;19.83;29.77
44138;BME280;29800;55.942;37.314;2023-04-25T09:23:46;99087.69;;;19.99;30.24
44138;BME280;29800;55.942;37.314;2023-04-25T09:26:17;99080.13;;;20.26;30.21
44138;BME280;29800;55.942;37.314;2023-04-25T09:28:45;99088.56;;;20.47;28.97
44138;BME280;29800;55.942;37.314;2023-04-25T09:31:22;99081.81;;;20.66;28.90
44138;BME280;29800;55.942;37.314;2023-04-25T09:34:01;99087.69;;;20.73;28.48
44138;BME280;29800;55.942;37.314;2023-04-25T09:36:30;99073.38;;;20.45;28.52
44138;BME280;29800;55.942;37.314;2023-04-25T09:39:19;99069.00;;;20.26;29.45
44138;BME280;29800;55.942;37.314;2023-04-25T09:42:03;99070.44;;;20.41;29.04
44138;BME280;29800;55.942;37.314;2023-04-25T09:44:30;99061.44;;;20.53;29.73
44138;BME280;29800;55.942;37.314;2023-04-25T09:46:57;99062.63;;;20.82;30.11
44138;BME280;29800;55.942;37.314;2023-04-25T09:49:27;99062.53;;;20.99;28.84
44138;BME280;29800;55.942;37.314;2023-04-25T09:52:02;99062.88;;;20.98;28.62
44138;BME280;29800;55.942;37.314;2023-04-25T09:54:35;99058.69;;;20.83;28.64
44138;BME280;29800;55.942;37.314;2023-04-25T09:57:24;99059.97;;;20.85;29.76
44138;BME280;29800;55.942;37.314;2023-04-25T09:59:54;99066.66;;;20.93;29.44
44138;BME280;29800;55.942;37.314;2023-04-25T10:02:23;99063.88;;;20.93;29.18
44138;BME280;29800;55.942;37.314;2023-04-25T10:04:54;99052.75;;;20.93;29.75
44138;BME280;29800;55.942;37.314;2023-04-25T10:07:31;99062.91;;;20.89;29.66
44138;BME280;29800;55.942;37.314;2023-04-25T10:10:02;99056.13;;;20.78;30.08
44138;BME280;29800;55.942;37.314;2023-04-25T10:12:30;99062.94;;;20.80;30.31
44138;BME280;29800;55.942;37.314;2023-04-25T10:14:58;99066.03;;;20.87;29.75
44138;BME280;29800;55.942;37.314;2023-04-25T10:17:26;99055.88;;;20.91;30.35
44138;BME280;29800;55.942;37.314;2023-04-25T10:19:54;99051.31;;;20.87;30.26
44138;BME280;29800;55.942;37.314;2023-04-25T10:22:29;99063.25;;;20.87;30.58
44138;BME280;29800;55.942;37.314;2023-04-25T10:24:57;99041.03;;;20.79;30.24
44138;BME280;29800;55.942;37.314;2023-04-25T10:27:23;99047.56;;;20.83;29.98
44138;BME280;29800;55.942;37.314;2023-04-25T10:30:01;99043.63;;;20.84;30.25
44138;BME280;29800;55.942;37.314;2023-04-25T10:32:33;99046.91;;;20.86;29.96
44138;BME280;29800;55.942;37.314;2023-04-25T10:35:23;99037.41;;;20.87;30.36
44138;BME280;29800;55.942;37.314;2023-04-25T10:38:00;99036.94;;;20.85;30.68
44138;BME280;29800;55.942;37.314;2023-04-25T10:40:29;99039.44;;;20.78;30.28
44138;BME280;29800;55.942;37.314;2023-04-25T10:45:59;99030.63;;;20.67;30.22
44138;BME280;29800;55.942;37.314;2023-04-25T10:48:27;99017.91;;;20.57;30.32
44138;BME280;29800;55.942;37.314;2023-04-25T10:51:10;99012.81;;;20.59;30.65
44138;BME280;29800;55.942;37.314;2023-04-25T10:53:37;99017.63;;;20.50;29.22
44138;BME280;29800;55.942;37.314;2023-04-25T10:56:20;99011.03;;;20.63;30.03
44138;BME280;29800;55.942;37.314;2023-04-25T10:58:50;99010.94;;;20.81;31.01
44138;BME280;29800;55.942;37.314;2023-04-25T11:01:21;99013.16;;;20.96;30.23
44138;BME280;29800;55.942;37.314;2023-04-25T11:03:57;99010.44;;;21.08;30.69
44138;BME280;29800;55.942;37.314;2023-04-25T11:09:11;98999.59;;;21.37;29.87
44138;BME280;29800;55.942;37.314;2023-04-25T11:11:41;98996.47;;;21.38;28.68
44138;BME280;29800;55.942;37.314;2023-04-25T11:14:07;98992.53;;;21.39;29.67
44138;BME280;29800;55.942;37.314;2023-04-25T11:16:34;98986.75;;;21.44;28.88
44138;BME280;29800;55.942;37.314;2023-04-25T11:19:02;98977.47;;;21.40;28.22
44138;BME280;29800;55.942;37.314;2023-04-25T11:21:29;98984.03;;;21.36;27.81
44138;BME280;29800;55.942;37.314;2023-04-25T11:23:57;98980.44;;;21.35;29.18
44138;BME280;29800;55.942;37.314;2023-04-25T11:26:24;98981.13;;;21.32;29.26
44138;BME280;29800;55.942;37.314;2023-04-25T11:28:51;98969.38;;;21.26;29.13
44138;BME280;29800;55.942;37.314;2023-04-25T11:31:20;98975.28;;;21.25;30.31
44138;BME280;29800;55.942;37.314;2023-04-25T11:33:47;98967.44;;;21.27;29.00
44138;BME280;29800;55.942;37.314;2023-04-25T11:36:13;98959.66;;;21.33;28.34
44138;BME280;29800;55.942;37.314;2023-04-25T11:38:40;98957.50;;;21.38;27.90
44138;BME280;29800;55.942;37.314;2023-04-25T11:41:07;98959.00;;;21.36;28.70
44138;BME280;29800;55.942;37.314;2023-04-25T11:43:33;98952.19;;;21.45;29.14
44138;BME280;29800;55.942;37.314;2023-04-25T11:46:00;98951.22;;;21.41;28.84
44138;BME280;29800;55.942;37.314;2023-04-25T11:48:26;98957.34;;;21.35;28.58
44138;BME280;29800;55.942;37.314;2023-04-25T11:50:53;98936.47;;;21.28;27.99
44138;BME280;29800;55.942;37.314;2023-04-25T11:53:21;98935.44;;;21.33;28.28
44138;BME280;29800;55.942;37.314;2023-04-25T11:55:47;98939.84;;;21.34;28.27
44138;BME280;29800;55.942;37.314;2023-04-25T11:58:13;98936.38;;;21.37;28.52
44138;BME280;29800;55.942;37.314;2023-04-25T12:00:41;98939.63;;;21.39;28.21
44138;BME280;29800;55.942;37.314;2023-04-25T12:03:09;98936.97;;;21.43;28.65
44138;BME280;29800;55.942;37.314;2023-04-25T12:05:35;98932.88;;;21.49;28.89
44138;BME280;29800;55.942;37.314;2023-04-25T12:08:10;98935.78;;;21.53;28.76
44138;BME280;29800;55.942;37.314;2023-04-25T12:10:43;98930.41;;;21.47;28.68
44138;BME280;29800;55.942;37.314;2023-04-25T12:13:26;98918.31;;;21.43;28.98
44138;BME280;29800;55.942;37.314;2023-04-25T12:15:55;98915.03;;;21.29;28.14
44138;BME280;29800;55.942;37.314;2023-04-25T12:18:25;98907.56;;;21.21;28.22
44138;BME280;29800;55.942;37.314;2023-04-25T12:20:53;98908.00;;;21.10;28.72
44138;BME280;29800;55.942;37.314;2023-04-25T12:23:26;98913.56;;;21.10;28.66
44138;BME280;29800;55.942;37.314;2023-04-25T12:25:54;98898.44;;;20.99;28.96
44138;BME280;29800;55.942;37.314;2023-04-25T12:28:22;98894.69;;;20.95;28.87
44138;BME280;29800;55.942;37.314;2023-04-25T12:33:24;98890.13;;;21.11;28.91
44138;BME280;29800;55.942;37.314;2023-04-25T12:35:53;98885.31;;;21.21;28.33
44138;BME280;29800;55.942;37.314;2023-04-25T12:38:29;98879.53;;;21.26;27.69
44138;BME280;29800;55.942;37.314;2023-04-25T12:40:57;98868.44;;;21.38;27.91
44138;BME280;29800;55.942;37.314;2023-04-25T12:43:27;98861.50;;;21.44;28.24
44138;BME280;29800;55.942;37.314;2023-04-25T12:45:55;98853.22;;;21.57;27.50
44138;BME280;29800;55.942;37.314;2023-04-25T12:48:22;98855.72;;;21.50;27.66
44138;BME280;29800;55.942;37.314;2023-04-25T12:50:50;98851.88;;;21.42;26.87
44138;BME280;29800;55.942;37.314;2023-04-25T12:53:18;98852.16;;;21.28;27.28
44138;BME280;29800;55.942;37.314;2023-04-25T12:55:46;98852.84;;;21.25;27.42
44138;BME280;29800;55.942;37.314;2023-04-25T12:58:16;98852.84;;;21.25;28.45
44138;BME280;29800;55.942;37.314;2023-04-25T13:00:44;98849.13;;;21.21;27.89
44138;BME280;29800;55.942;37.314;2023-04-25T13:03:11;98844.81;;;21.11;27.74
44138;BME280;29800;55.942;37.314;2023-04-25T13:05:38;98841.69;;;21.13;28.24
44138;BME280;29800;55.942;37.314;2023-04-25T13:08:05;98837.50;;;21.06;28.78
44138;BME280;29800;55.942;37.314;2023-04-25T13:10:32;98838.66;;;21.05;28.62
44138;BME280;29800;55.942;37.314;2023-04-25T13:12:59;98830.50;;;21.00;28.09
44138;BME280;29800;55.942;37.314;2023-04-25T13:15:27;98834.47;;;20.99;28.72
44138;BME280;29800;55.942;37.314;2023-04-25T13:17:53;98834.19;;;20.92;28.00